Погода Лазарьковона неделю

Тверская область, Россия

25 - 31 мая
  • 25мая
    Сегодня
    +11°
    +25°
    Ясно и безоблачно
    ВремяПогодаТемператураВлажностьДавлениеВетер, м/сВероятность осадков
    00:00Ясно и безоблачно+11°C52 %757 мм3.3 м/с2 %
    03:00Ясно и безоблачно+9°C59 %757 мм3.6 м/с2 %
    06:00Ясно и безоблачно+12°C59 %757 мм3.9 м/с2 %
    09:00Небольшая облачность+20°C48 %757 мм4.1 м/с2 %
    12:00Небольшая облачность+23°C29 %756 мм5.1 м/с2 %
    15:00Ясно и безоблачно+24°C29 %754 мм4.8 м/с2 %
    18:00Ясно и безоблачно+24°C33 %753 мм4.5 м/с2 %
    21:00Ясно и безоблачно+18°C45 %753 мм3.5 м/с2 %
  • 26мая
    Воскресенье
    +5°
    +21°
    Практически безоблачно
    ВремяПогодаТемператураВлажностьДавлениеВетер, м/сВероятность осадков
    00:00Практически безоблачно+13°C55 %753 мм3.1 м/с2 %
    03:00Ясно и безоблачно+11°C76 %753 мм1.9 м/с3 %
    06:00Небольшая облачность+14°C88 %754 мм2.6 м/с2 %
    09:00Облачно с прояснениями+18°C59 %754 мм3.7 м/с10 %
    12:00Небольшая облачность+20°C49 %755 мм3.8 м/с11 %
    15:00Практически безоблачно+21°C30 %755 мм4.2 м/с9 %
    18:00Ясно и безоблачно+20°C34 %755 мм3.9 м/с4 %
    21:00Ясно и безоблачно+13°C43 %756 мм2.5 м/с2 %
  • 27мая
    Понедельник
    +8°
    +23°
    Ясно и безоблачно
    ВремяПогодаТемператураВлажностьДавлениеВетер, м/сВероятность осадков
    00:00Ясно и безоблачно+8°C54 %756 мм2.6 м/с2 %
    03:00Ясно и безоблачно+6°C66 %757 мм2.5 м/с2 %
    06:00Ясно и безоблачно+9°C65 %757 мм2.6 м/с2 %
    09:00Ясно и безоблачно+17°C46 %758 мм2.8 м/с2 %
    12:00Ясно и безоблачно+20°C36 %757 мм2.5 м/с2 %
    15:00Ясно и безоблачно+22°C32 %756 мм2.0 м/с2 %
    18:00Ясно и безоблачно+22°C33 %755 мм1.6 м/с2 %
    21:00Ясно и безоблачно+16°C50 %754 мм2.1 м/с2 %
  • 28мая
    Вторник
    +11°
    +27°
    Практически безоблачно
    ВремяПогодаТемператураВлажностьДавлениеВетер, м/сВероятность осадков
    00:00Ясно и безоблачно+10°C63 %753 мм2.3 м/с2 %
    03:00Ясно и безоблачно+9°C63 %753 мм2.4 м/с2 %
    06:00Ясно и безоблачно+12°C63 %753 мм2.3 м/с2 %
    09:00Ясно и безоблачно+21°C49 %753 мм1.1 м/с2 %
    12:00Ясно и безоблачно+24°C35 %753 мм0.7 м/с2 %
    15:00Практически безоблачно+26°C31 %751 мм0.9 м/с9 %
    18:00Практически безоблачно+25°C33 %750 мм3.0 м/с11 %
    21:00Ясно и безоблачно+20°C46 %750 мм3.9 м/с2 %
  • 29мая
    Среда
    +10°
    +27°
    Облачно с прояснениями
    ВремяПогодаТемператураВлажностьДавлениеВетер, м/сВероятность осадков
    00:00Ясно и безоблачно+14°C64 %749 мм2.5 м/с2 %
    03:00Небольшая облачность+12°C77 %749 мм2.4 м/с3 %
    06:00Небольшая облачность+16°C73 %749 мм2.5 м/с8 %
    09:00Ясно и безоблачно+24°C56 %749 мм1.3 м/с17 %
    12:00Небольшая облачность+26°C43 %748 мм1.8 м/с43 %
    15:00Облачно с прояснениями+27°C41 %747 мм1.9 м/с48 %
    18:00Небольшая облачность, возможен дождь с грозой+24°C59 %747 мм2.9 м/с54 %
    21:00Облачно с прояснениями+20°C70 %747 мм0.8 м/с19 %
Мы используем cookies
Соглашаюсь